Time;durP1;ratioP1;P1;durP2;ratioP2;P2;SDS_P1;SDS_P2;PMS_P1;PMS_P2;Temp;Humidity;BMP_temperature;BMP_pressure;BME280_temperature;BME280_humidity;BME280_pressure;Samples;Min_cycle;Max_cycle;Signal;HPM_P1;HPM_P2
2022/11/29 00:01:32;;;;;;;36.88;11.18;;;3.30;99.90;;;;;;4780741;29;20150;-78
2022/11/29 00:04:00;;;;;;;38.63;12.48;;;1.90;99.90;;;;;;4765116;30;20052;-78
2022/11/29 00:06:30;;;;;;;34.05;10.48;;;3.30;99.90;;;;;;4777017;29;20055;-78
2022/11/29 00:09:01;;;;;;;31.33;9.60;;;2.00;99.90;;;;;;4771091;30;20834;-78
2022/11/29 00:14:19;;;;;;;34.90;11.25;;;2.00;99.90;;;;;;4763607;30;20393;-78
2022/11/29 00:16:52;;;;;;;43.28;10.68;;;2.90;99.90;;;;;;4750815;30;20048;-78
2022/11/29 00:19:22;;;;;;;37.75;12.25;;;3.00;99.90;;;;;;4779454;30;20051;-78
2022/11/29 00:21:49;;;;;;;34.65;9.77;;;2.00;99.90;;;;;;4762576;30;20467;-78
2022/11/29 00:24:18;;;;;;;34.15;10.73;;;2.40;99.90;;;;;;4778916;29;20056;-78
2022/11/29 00:26:46;;;;;;;34.65;10.05;;;2.50;99.90;;;;;;4752705;30;20078;-78
2022/11/29 00:29:13;;;;;;;31.10;8.95;;;3.30;99.90;;;;;;4766032;30;20089;-78
2022/11/29 00:31:41;;;;;;;38.47;11.98;;;3.30;99.90;;;;;;4763782;30;20055;-78
2022/11/29 00:34:10;;;;;;;36.78;12.40;;;1.90;99.90;;;;;;4759980;30;20127;-78
2022/11/29 00:36:38;;;;;;;37.03;11.02;;;1.80;99.90;;;;;;4751940;30;20052;-77
2022/11/29 00:39:10;;;;;;;38.13;10.93;;;2.80;99.90;;;;;;4764851;30;20048;-78
2022/11/29 00:41:39;;;;;;;31.50;9.02;;;1.80;99.90;;;;;;4763364;30;20066;-78
2022/11/29 00:44:06;;;;;;;36.15;11.02;;;2.90;99.90;;;;;;4763194;30;20044;-77
2022/11/29 00:46:34;;;;;;;31.08;9.85;;;2.00;99.90;;;;;;4764815;30;20040;-78
2022/11/29 00:49:02;;;;;;;36.65;11.40;;;2.10;99.90;;;;;;4778965;29;20052;-78
2022/11/29 00:51:29;;;;;;;10.48;2.88;;;2.80;99.90;;;;;;4765468;30;20064;-77
2022/11/29 00:53:56;;;;;;;27.70;9.88;;;1.80;99.90;;;;;;4770990;30;20047;-77
2022/11/29 00:56:24;;;;;;;34.10;10.48;;;1.80;99.90;;;;;;4770440;30;20060;-78
2022/11/29 00:58:51;;;;;;;38.13;11.45;;;1.80;99.90;;;;;;4768400;29;20104;-78
2022/11/29 01:01:18;;;;;;;32.38;9.85;;;1.90;99.90;;;;;;4767854;30;20040;-78
2022/11/29 01:03:45;;;;;;;37.97;11.85;;;1.80;99.90;;;;;;4765667;30;20055;-78
2022/11/29 01:06:16;;;;;;;22.17;7.43;;;1.80;99.90;;;;;;4767568;30;20052;-76
2022/11/29 01:08:47;;;;;;;20.58;7.07;;;1.90;99.90;;;;;;4769328;30;20503;-78
2022/11/29 01:11:15;;;;;;;36.58;10.68;;;1.80;99.90;;;;;;4782344;30;20051;-78
2022/11/29 01:13:42;;;;;;;34.55;10.50;;;1.80;99.90;;;;;;4768125;30;20048;-78
2022/11/29 01:16:10;;;;;;;33.63;9.65;;;2.30;99.90;;;;;;4768761;30;20059;-78
2022/11/29 01:18:37;;;;;;;29.27;9.00;;;2.40;99.90;;;;;;4767570;30;20097;-78
2022/11/29 01:21:11;;;;;;;34.92;10.48;;;1.90;99.90;;;;;;4752293;30;20052;-78
2022/11/29 01:23:39;;;;;;;30.15;8.88;;;1.90;99.90;;;;;;4765332;30;20069;-78
2022/11/29 01:26:13;;;;;;;31.67;11.13;;;1.90;99.90;;;;;;4772881;30;20051;-78
2022/11/29 01:28:41;;;;;;;27.33;8.02;;;1.90;99.90;;;;;;4780511;30;20139;-78
2022/11/29 01:31:12;;;;;;;33.45;9.80;;;1.80;99.90;;;;;;4767372;30;20044;-78
2022/11/29 01:33:40;;;;;;;17.83;5.93;;;1.80;99.90;;;;;;4777066;29;20420;-78
2022/11/29 01:36:08;;;;;;;37.15;11.60;;;1.70;99.90;;;;;;4788776;29;20051;-78
2022/11/29 01:38:35;;;;;;;36.17;11.82;;;1.80;99.90;;;;;;4778587;29;20067;-78
2022/11/29 01:41:06;;;;;;;27.35;10.25;;;1.80;99.90;;;;;;4767807;30;20100;-78
2022/11/29 01:43:51;;;;;;;27.40;8.05;;;1.90;99.90;;;;;;4779203;30;20060;-78
2022/11/29 01:46:18;;;;;;;34.58;10.02;;;1.80;99.90;;;;;;4766706;30;20486;-78
2022/11/29 01:48:46;;;;;;;40.85;10.43;;;1.80;99.90;;;;;;4768145;30;20036;-78
2022/11/29 01:51:14;;;;;;;34.50;10.80;;;2.30;99.90;;;;;;4751597;30;20054;-78
2022/11/29 01:53:41;;;;;;;27.10;8.48;;;1.80;99.90;;;;;;4767564;30;20040;-78
2022/11/29 01:56:13;;;;;;;31.58;10.50;;;1.80;99.90;;;;;;4770059;30;20640;-78
2022/11/29 01:58:43;;;;;;;30.52;9.18;;;2.90;99.90;;;;;;4763806;30;20117;-78
2022/11/29 02:01:11;;;;;;;33.97;10.90;;;1.70;99.90;;;;;;4767792;30;20052;-78
2022/11/29 02:03:39;;;;;;;32.97;10.88;;;1.80;99.90;;;;;;4765944;30;20126;-78
2022/11/29 02:06:07;;;;;;;29.38;8.60;;;1.80;99.90;;;;;;4767233;30;20065;-78
2022/11/29 02:08:41;;;;;;;31.75;9.57;;;2.30;99.90;;;;;;4765860;30;20044;-77
2022/11/29 02:11:14;;;;;;;30.33;8.90;;;1.60;99.90;;;;;;4750825;30;20067;-77
2022/11/29 02:14:17;;;;;;;30.83;10.35;;;1.70;99.90;;;;;;4781248;30;20135;-78
2022/11/29 02:16:59;;;;;;;33.10;9.73;;;1.60;99.90;;;;;;4749853;30;20501;-78
2022/11/29 02:20:09;;;;;;;34.78;8.77;;;0.60;99.90;;;;;;4763864;30;20174;-78
2022/11/29 02:22:51;;;;;;;33.17;10.93;;;1.80;99.90;;;;;;4761629;30;20109;-78
2022/11/29 02:25:19;;;;;;;;;;;1.70;99.90;;;;;;4782604;29;20058;-78
2022/11/29 02:27:52;;;;;;;35.15;10.63;;;2.40;99.90;;;;;;4766115;29;19961;-78
2022/11/29 02:30:23;;;;;;;21.45;7.60;;;2.80;99.90;;;;;;4781037;29;20576;-78
2022/11/29 02:33:21;;;;;;;40.03;11.15;;;1.40;99.90;;;;;;4767820;29;20059;-78
2022/11/29 02:36:26;;;;;;;29.83;9.88;;;1.60;99.90;;;;;;4780862;29;20055;-78
2022/11/29 02:39:32;;;;;;;29.23;8.80;;;1.70;99.90;;;;;;4771926;30;20059;-78
2022/11/29 02:42:18;;;;;;;25.70;8.15;;;1.70;99.90;;;;;;4718501;30;20232;-77
2022/11/29 02:45:03;;;;;;;25.90;8.27;;;3.30;99.90;;;;;;4764432;30;20044;-77
2022/11/29 02:47:49;;;;;;;31.98;10.30;;;1.80;99.90;;;;;;4747558;30;20048;-77
2022/11/29 02:50:37;;;;;;;30.10;8.80;;;1.90;99.90;;;;;;4752481;30;20134;-77
2022/11/29 02:53:20;;;;;;;32.45;9.27;;;1.80;99.90;;;;;;4766035;30;20040;-77
2022/11/29 02:56:07;;;;;;;29.60;9.25;;;1.80;99.90;;;;;;4764670;30;20062;-77
2022/11/29 02:58:53;;;;;;;25.70;8.45;;;1.60;99.90;;;;;;4780415;29;20063;-77
2022/11/29 03:01:31;;;;;;;28.77;9.05;;;1.90;99.90;;;;;;4754110;30;20681;-77
2022/11/29 03:04:06;;;;;;;28.88;8.85;;;3.50;99.90;;;;;;4765898;30;20489;-78
2022/11/29 03:07:03;;;;;;;29.08;8.90;;;1.90;99.90;;;;;;4778593;29;20505;-78
2022/11/29 03:09:52;;;;;;;22.95;7.65;;;1.80;99.90;;;;;;4777399;30;20143;-77
2022/11/29 03:12:51;;;;;;;27.05;8.27;;;1.70;99.90;;;;;;4763784;30;20056;-77
2022/11/29 03:15:44;;;;;;;29.65;8.77;;;1.90;99.90;;;;;;4777708;29;20055;-77
2022/11/29 03:18:32;;;;;;;21.13;6.50;;;1.80;99.90;;;;;;4752001;30;20523;-78
2022/11/29 03:21:21;;;;;;;30.48;9.48;;;1.70;99.90;;;;;;4767843;30;20055;-78
2022/11/29 03:23:49;;;;;;;23.80;8.88;;;1.80;99.90;;;;;;4748136;30;20048;-78
2022/11/29 03:26:32;;;;;;;23.00;8.13;;;1.80;99.90;;;;;;4767498;30;20408;-78
2022/11/29 03:29:12;;;;;;;;;;;1.60;99.90;;;;;;4770808;30;20051;-77
2022/11/29 03:31:46;;;;;;;24.38;7.43;;;1.60;99.90;;;;;;4781138;30;19926;-78
2022/11/29 03:34:22;;;;;;;22.05;6.70;;;1.60;99.90;;;;;;4766087;30;20051;-78
2022/11/29 03:37:05;;;;;;;18.10;7.15;;;1.60;99.90;;;;;;4762479;30;20040;-78
2022/11/29 03:39:52;;;;;;;23.45;7.22;;;1.60;99.90;;;;;;4762522;30;20056;-78
2022/11/29 03:42:24;;;;;;;19.42;6.68;;;1.50;99.90;;;;;;4767891;30;20048;-78
2022/11/29 03:44:51;;;;;;;21.38;7.10;;;1.50;99.90;;;;;;4783163;30;20059;-78
2022/11/29 03:47:28;;;;;;;19.92;6.28;;;1.60;99.90;;;;;;4775851;30;20051;-78
2022/11/29 03:50:06;;;;;;;20.13;7.50;;;1.50;99.90;;;;;;4780231;29;20059;-78
2022/11/29 03:52:43;;;;;;;21.88;7.75;;;1.50;99.90;;;;;;4786353;29;20044;-78
2022/11/29 03:55:44;;;;;;;24.38;7.55;;;1.50;99.90;;;;;;4765496;30;20044;-78
2022/11/29 03:58:30;;;;;;;20.23;7.45;;;1.60;99.90;;;;;;4782946;29;20051;-78
2022/11/29 04:01:18;;;;;;;21.83;6.78;;;1.60;99.90;;;;;;4765208;30;20043;-78
2022/11/29 04:03:58;;;;;;;23.98;6.07;;;1.50;99.90;;;;;;4763484;30;20121;-77
2022/11/29 04:06:49;;;;;;;23.48;7.05;;;1.60;99.90;;;;;;4764173;30;20139;-78
2022/11/29 04:09:42;;;;;;;21.58;6.45;;;1.50;99.90;;;;;;4767972;30;20050;-78
2022/11/29 04:12:45;;;;;;;21.80;6.70;;;1.50;99.90;;;;;;4751880;30;20043;-78
2022/11/29 04:15:18;;;;;;;;;;;1.50;99.90;;;;;;4765359;30;20044;-78
2022/11/29 04:17:51;;;;;;;20.13;7.53;;;1.60;99.90;;;;;;4765400;30;19926;-78
2022/11/29 04:20:31;;;;;;;26.27;8.27;;;1.70;99.90;;;;;;4761573;30;20559;-78
2022/11/29 04:23:08;;;;;;;21.00;7.65;;;1.60;99.90;;;;;;4766835;30;20599;-78
2022/11/29 04:26:18;;;;;;;24.52;6.97;;;1.50;99.90;;;;;;4779742;30;20044;-78
2022/11/29 04:29:14;;;;;;;21.98;6.90;;;1.50;99.90;;;;;;4764118;30;20044;-78
2022/11/29 04:32:35;;;;;;;19.10;5.40;;;1.60;99.90;;;;;;4759457;30;20075;-78
2022/11/29 04:35:34;;;;;;;22.25;7.53;;;1.40;99.90;;;;;;4709798;30;20053;-78
2022/11/29 04:38:29;;;;;;;24.25;6.95;;;1.50;99.90;;;;;;4709182;30;20462;-78
2022/11/29 04:41:02;;;;;;;18.38;5.75;;;1.40;99.90;;;;;;4768810;30;20055;-78
2022/11/29 04:43:32;;;;;;;23.70;7.70;;;1.40;99.90;;;;;;4765767;30;20056;-78
2022/11/29 04:46:36;;;;;;;24.88;8.35;;;1.50;99.90;;;;;;4770739;30;20104;-78
2022/11/29 04:49:31;;;;;;;23.10;7.07;;;1.50;99.90;;;;;;4769319;30;20397;-78
2022/11/29 04:52:32;;;;;;;19.70;6.47;;;1.50;99.90;;;;;;4772725;30;20452;-78
2022/11/29 04:55:18;;;;;;;23.02;7.38;;;1.50;99.90;;;;;;4782741;29;20063;-77
2022/11/29 04:57:59;;;;;;;24.42;8.77;;;1.50;99.90;;;;;;4767814;30;20055;-78
2022/11/29 05:00:37;;;;;;;22.25;7.18;;;1.50;99.90;;;;;;4754561;30;20071;-77
2022/11/29 05:03:35;;;;;;;19.58;6.60;;;1.50;99.90;;;;;;4783607;30;20881;-78
2022/11/29 05:06:18;;;;;;;21.75;7.72;;;1.50;99.90;;;;;;4766213;30;20052;-77
2022/11/29 05:09:07;;;;;;;24.23;7.47;;;1.60;99.90;;;;;;4786297;29;20043;-77
2022/11/29 05:11:47;;;;;;;23.13;6.07;;;1.70;99.90;;;;;;4780329;30;20048;-77
2022/11/29 05:14:48;;;;;;;22.38;7.57;;;1.70;99.90;;;;;;4766917;30;20546;-78
2022/11/29 05:17:41;;;;;;;22.48;7.13;;;1.50;99.90;;;;;;4779850;30;20416;-78
2022/11/29 05:20:31;;;;;;;19.40;6.88;;;1.40;99.90;;;;;;4776699;30;20060;-78
2022/11/29 05:23:36;;;;;;;19.75;6.32;;;1.50;99.90;;;;;;4765857;30;20067;-78
2022/11/29 05:26:12;;;;;;;22.15;7.20;;;1.40;99.90;;;;;;4760983;30;20058;-78
2022/11/29 05:28:54;;;;;;;19.60;6.22;;;1.40;99.90;;;;;;4783033;29;20080;-78
2022/11/29 05:31:36;;;;;;;22.27;6.60;;;1.40;99.90;;;;;;4766503;30;20048;-77
2022/11/29 05:34:18;;;;;;;22.13;7.25;;;1.40;99.90;;;;;;4765566;30;20393;-78
2022/11/29 05:37:18;;;;;;;19.67;6.77;;;1.60;99.90;;;;;;4784568;29;20078;-78
2022/11/29 05:40:20;;;;;;;20.77;7.03;;;1.40;99.90;;;;;;4766267;30;20307;-78
2022/11/29 05:43:11;;;;;;;25.77;7.68;;;1.40;99.90;;;;;;4719389;30;20140;-78
2022/11/29 05:46:08;;;;;;;26.02;7.82;;;1.50;99.90;;;;;;4768129;30;20458;-78
2022/11/29 05:48:45;;;;;;;23.80;7.63;;;1.50;99.90;;;;;;4768371;30;20123;-77
2022/11/29 05:51:45;;;;;;;21.77;7.65;;;1.50;99.90;;;;;;4767887;30;20079;-78
2022/11/29 05:54:51;;;;;;;20.05;7.15;;;1.40;99.90;;;;;;4779746;29;20127;-78
2022/11/29 05:57:43;;;;;;;24.85;7.25;;;1.50;99.90;;;;;;4750084;30;20055;-78
2022/11/29 06:00:13;;;;;;;26.40;8.73;;;1.60;99.90;;;;;;4747680;30;20051;-78
2022/11/29 06:03:04;;;;;;;20.63;7.68;;;1.50;99.90;;;;;;4752526;30;20048;-77
2022/11/29 06:05:41;;;;;;;23.23;7.40;;;1.60;99.90;;;;;;4745344;30;20052;-77
2022/11/29 06:08:20;;;;;;;25.02;7.38;;;1.50;99.90;;;;;;4747180;30;20057;-78
2022/11/29 06:11:20;;;;;;;24.77;8.05;;;1.60;99.90;;;;;;4747557;30;20090;-78
2022/11/29 06:14:13;;;;;;;23.42;6.80;;;1.60;99.90;;;;;;4747766;30;20066;-78
2022/11/29 06:17:17;;;;;;;26.52;8.40;;;1.60;99.90;;;;;;4733698;30;20072;-78
2022/11/29 06:19:53;;;;;;;18.98;5.78;;;1.60;99.90;;;;;;4750079;30;20064;-78
2022/11/29 06:22:36;;;;;;;24.67;7.18;;;1.60;99.90;;;;;;4712665;30;20090;-78
2022/11/29 06:25:30;;;;;;;25.23;8.45;;;1.50;99.90;;;;;;4741049;30;20056;-78
2022/11/29 06:28:04;;;;;;;25.48;9.23;;;1.50;99.90;;;;;;4744133;30;20150;-78
2022/11/29 06:31:00;;;;;;;27.55;8.90;;;1.60;99.90;;;;;;4765723;30;20043;-78
2022/11/29 06:33:53;;;;;;;25.30;7.88;;;1.60;99.90;;;;;;4766466;30;20044;-78
2022/11/29 06:36:26;;;;;;;26.27;8.68;;;1.70;99.90;;;;;;4765756;30;20123;-78
2022/11/29 06:38:54;;;;;;;32.47;8.43;;;1.80;99.90;;;;;;4764012;30;20070;-78
2022/11/29 06:41:23;;;;;;;27.95;8.68;;;1.80;99.90;;;;;;4766211;30;20423;-78
2022/11/29 06:43:51;;;;;;;29.80;8.75;;;1.80;99.90;;;;;;4751973;30;20067;-78
2022/11/29 06:46:22;;;;;;;37.45;10.25;;;1.70;99.90;;;;;;4769113;30;20069;-78
2022/11/29 06:49:25;;;;;;;36.95;10.82;;;1.70;99.90;;;;;;4752993;30;20047;-78
2022/11/29 06:51:52;;;;;;;29.90;8.80;;;1.60;99.90;;;;;;4771701;29;20142;-78
2022/11/29 06:54:39;;;;;;;38.60;11.25;;;2.00;99.90;;;;;;4765596;30;20428;-78
2022/11/29 06:57:19;;;;;;;38.90;12.15;;;1.70;99.90;;;;;;4780478;29;20146;-78
2022/11/29 07:00:15;;;;;;;55.78;16.05;;;1.80;99.90;;;;;;4764781;30;20059;-78
2022/11/29 07:03:10;;;;;;;35.83;10.65;;;1.80;99.90;;;;;;4780920;30;20043;-78
2022/11/29 07:05:38;;;;;;;29.42;8.70;;;1.70;99.90;;;;;;4748077;30;20058;-78
2022/11/29 07:08:15;;;;;;;34.05;9.00;;;1.80;99.90;;;;;;4766013;30;20450;-77
2022/11/29 07:10:43;;;;;;;31.85;8.63;;;1.80;99.90;;;;;;4764500;30;20052;-78
2022/11/29 07:13:12;;;;;;;25.98;7.07;;;1.80;99.90;;;;;;4767263;30;21099;-78
2022/11/29 07:18:30;;;;;;;25.23;7.63;;;1.70;99.90;;;;;;4767815;30;21402;-78
2022/11/29 07:21:16;;;;;;;30.75;9.82;;;2.30;99.90;;;;;;4761356;30;20080;-78
2022/11/29 07:24:17;;;;;;;37.67;9.73;;;1.70;99.90;;;;;;4755190;30;20047;-78
2022/11/29 07:26:48;;;;;;;29.02;9.02;;;1.60;99.90;;;;;;4771040;30;20138;-78
2022/11/29 07:29:49;;;;;;;33.70;10.07;;;2.10;99.90;;;;;;4760892;30;20047;-78
2022/11/29 07:32:36;;;;;;;37.33;9.52;;;1.60;99.90;;;;;;4758351;30;20062;-79
2022/11/29 07:35:15;;;;;;;40.47;10.55;;;1.80;99.90;;;;;;4758428;30;20471;-79
2022/11/29 07:38:12;;;;;;;29.52;8.15;;;1.80;99.90;;;;;;4739247;30;20044;-78
2022/11/29 07:40:48;;;;;;;32.25;9.60;;;1.50;99.90;;;;;;4757149;30;20150;-78
2022/11/29 07:43:38;;;;;;;28.45;9.27;;;2.00;99.90;;;;;;4750058;30;20047;-78
2022/11/29 07:46:06;;;;;;;26.20;8.55;;;1.80;99.90;;;;;;4760607;30;20095;-79
2022/11/29 07:48:34;;;;;;;33.60;9.90;;;1.90;99.90;;;;;;4774494;30;20060;-79
2022/11/29 07:51:05;;;;;;;32.25;10.48;;;2.00;99.90;;;;;;4777468;30;20055;-79
2022/11/29 07:53:40;;;;;;;33.03;9.90;;;3.70;99.90;;;;;;4779230;29;20061;-79
2022/11/29 07:56:09;;;;;;;;;;;1.60;99.90;;;;;;4754173;30;20060;-79
2022/11/29 07:58:37;;;;;;;32.80;11.35;;;1.80;99.90;;;;;;4785134;30;19932;-79
2022/11/29 08:01:07;;;;;;;38.13;11.02;;;1.80;99.90;;;;;;4743880;30;20040;-79
2022/11/29 08:03:35;;;;;;;33.72;10.88;;;1.80;99.90;;;;;;4710382;30;20041;-78
2022/11/29 08:06:03;;;;;;;36.60;9.93;;;2.00;99.90;;;;;;4731436;30;20049;-79
2022/11/29 08:08:33;;;;;;;40.63;11.27;;;1.90;99.90;;;;;;4745554;30;20132;-79
2022/11/29 08:11:12;;;;;;;43.08;12.05;;;2.10;99.90;;;;;;4723072;30;20053;-78
2022/11/29 08:13:39;;;;;;;40.70;12.20;;;2.00;99.90;;;;;;4716671;30;20067;-79
2022/11/29 08:16:07;;;;;;;32.72;10.15;;;2.60;99.90;;;;;;4712890;30;20057;-78
2022/11/29 08:18:35;;;;;;;36.38;9.88;;;1.70;99.90;;;;;;4733912;30;20053;-79
2022/11/29 08:21:06;;;;;;;42.03;11.63;;;1.90;99.90;;;;;;4729965;30;20060;-79
2022/11/29 08:23:35;;;;;;;40.42;10.68;;;1.90;99.90;;;;;;4731318;30;20045;-79
2022/11/29 08:26:03;;;;;;;43.47;11.52;;;2.30;99.90;;;;;;4727521;30;20064;-79
2022/11/29 08:28:32;;;;;;;32.67;10.40;;;1.90;99.90;;;;;;4730145;30;20170;-79
2022/11/29 08:31:07;;;;;;;39.20;10.90;;;0.40;99.90;;;;;;4727828;30;20048;-79
2022/11/29 08:33:41;;;;;;;37.20;11.52;;;2.50;99.90;;;;;;4735893;30;20047;-79
2022/11/29 08:36:12;;;;;;;35.30;10.63;;;1.90;99.90;;;;;;4768001;30;20889;-79
2022/11/29 08:38:39;;;;;;;31.20;10.05;;;1.80;99.90;;;;;;4752358;30;20516;-79
2022/11/29 08:41:09;;;;;;;42.53;12.18;;;1.90;99.90;;;;;;4764104;30;20085;-79
2022/11/29 08:43:40;;;;;;;45.72;11.73;;;1.80;99.90;;;;;;4763335;30;20088;-78
2022/11/29 08:46:08;;;;;;;34.22;10.00;;;2.00;99.90;;;;;;4756822;30;20135;-78
2022/11/29 08:48:43;;;;;;;40.60;11.48;;;2.20;99.90;;;;;;4776213;30;20415;-79
2022/11/29 08:51:12;;;;;;;48.17;14.90;;;3.90;99.90;;;;;;4747367;30;20058;-79
2022/11/29 08:53:40;;;;;;;46.25;14.48;;;2.20;99.90;;;;;;4778495;30;20074;-79
2022/11/29 08:56:13;;;;;;;39.45;12.70;;;2.40;99.90;;;;;;4756306;30;20056;-78
2022/11/29 08:59:00;;;;;;;43.83;11.93;;;2.00;99.90;;;;;;4761796;30;20047;-78
2022/11/29 09:01:28;;;;;;;40.40;12.13;;;2.20;99.90;;;;;;4775948;30;20764;-79
2022/11/29 09:38:15;;;;;;;36.65;10.48;;;2.60;99.90;;;;;;5306302;24;20073;-77
2022/11/29 09:48:35;;;;;;;40.70;11.95;;;2.70;99.90;;;;;;4789885;24;20056;-79
2022/11/29 09:51:09;;;;;;;38.37;11.57;;;2.70;99.90;;;;;;4756278;30;20044;-79
2022/11/29 09:53:42;;;;;;;31.83;10.88;;;3.40;99.90;;;;;;4782423;30;20330;-79
2022/11/29 09:56:42;;;;;;;36.55;12.57;;;2.60;99.90;;;;;;4761039;30;20048;-79
2022/11/29 09:59:18;;;;;;;36.15;11.60;;;2.60;99.90;;;;;;4716035;30;20051;-79
2022/11/29 10:02:20;;;;;;;36.10;12.25;;;2.90;99.90;;;;;;4763502;30;20123;-79
2022/11/29 10:05:09;;;;;;;39.85;13.18;;;3.10;99.90;;;;;;4757668;30;20115;-79
2022/11/29 10:10:47;;;;;;;32.08;11.50;;;3.00;99.90;;;;;;4796506;30;20051;-80
2022/11/29 10:13:30;;;;;;;33.20;10.18;;;2.70;99.90;;;;;;4776466;29;20104;-80
2022/11/29 10:16:09;;;;;;;39.30;11.15;;;3.00;99.90;;;;;;4816560;29;20051;-80
2022/11/29 10:38:01;;;;;;;41.05;14.13;;;3.10;99.90;;;;;;5403957;24;20062;-77
2022/11/29 11:55:27;;;;;;;73.40;24.65;;;3.30;99.90;;;;;;5823727;24;20927;-79
2022/11/29 15:38:55;;;;;;;;;;;2.90;99.90;;;;;;4780053;29;20055;-79
2022/11/29 15:46:24;;;;;;;56.03;18.13;;;2.50;99.90;;;;;;5022775;24;20074;-78
2022/11/29 15:48:52;;;;;;;50.00;18.83;;;2.90;99.90;;;;;;4742006;30;20133;-79
2022/11/29 15:51:29;;;;;;;49.33;16.80;;;1.80;99.90;;;;;;4746605;30;20098;-79
2022/11/29 15:54:10;;;;;;;53.40;18.42;;;2.30;99.90;;;;;;4760337;30;20048;-79
2022/11/29 15:57:09;;;;;;;52.92;19.23;;;2.80;99.90;;;;;;4744729;30;20058;-79
2022/11/29 15:59:37;;;;;;;51.50;18.25;;;2.20;99.90;;;;;;4744105;30;20508;-79
2022/11/29 16:02:17;;;;;;;49.80;16.75;;;2.60;99.90;;;;;;4760665;30;20052;-76
2022/11/29 16:04:47;;;;;;;53.58;19.25;;;2.80;99.90;;;;;;4747323;30;22540;-76
2022/11/29 16:07:17;;;;;;;48.22;15.63;;;2.80;99.90;;;;;;4762961;30;20052;-76
2022/11/29 16:09:51;;;;;;;52.85;17.92;;;2.80;99.90;;;;;;4735907;30;20039;-76
2022/11/29 16:12:18;;;;;;;49.25;17.98;;;2.90;99.90;;;;;;4747751;30;20054;-77
2022/11/29 16:14:59;;;;;;;47.80;17.42;;;2.70;99.90;;;;;;4751846;30;20055;-76
2022/11/29 16:17:32;;;;;;;40.75;15.07;;;2.80;99.90;;;;;;4763515;30;20044;-76
2022/11/29 16:20:18;;;;;;;50.08;18.45;;;2.60;99.90;;;;;;4764301;30;20147;-76
2022/11/29 16:22:45;;;;;;;47.50;17.25;;;3.80;99.90;;;;;;4731613;30;20928;-76
2022/11/29 16:25:18;;;;;;;100.28;38.05;;;2.60;99.90;;;;;;4732529;30;20058;-76
2022/11/29 16:27:46;;;;;;;70.40;27.95;;;2.70;99.90;;;;;;4741123;30;20143;-76
2022/11/29 16:30:22;;;;;;;59.28;22.35;;;2.60;99.90;;;;;;4729413;30;20044;-76
2022/11/29 16:32:58;;;;;;;53.42;20.85;;;2.70;99.90;;;;;;4745131;30;20063;-76
2022/11/29 16:35:28;;;;;;;54.60;22.08;;;2.60;99.90;;;;;;4735543;30;20386;-76
2022/11/29 16:37:56;;;;;;;55.33;20.52;;;2.80;99.90;;;;;;4747077;30;20102;-79
2022/11/29 16:40:25;;;;;;;52.03;17.40;;;2.70;99.90;;;;;;4744745;30;20539;-78
2022/11/29 16:43:18;;;;;;;51.60;17.58;;;2.70;99.90;;;;;;4743910;30;20048;-79
2022/11/29 16:45:46;;;;;;;47.78;15.98;;;2.70;99.90;;;;;;4745988;30;20064;-79
2022/11/29 16:48:28;;;;;;;56.13;17.88;;;2.60;99.90;;;;;;4732606;30;20053;-78
2022/11/29 16:51:08;;;;;;;;;;;2.40;99.90;;;;;;4729929;30;20048;-78
2022/11/29 16:53:38;;;;;;;47.28;15.48;;;2.70;99.90;;;;;;4744790;30;20833;-78
2022/11/29 16:56:11;;;;;;;50.15;17.45;;;3.50;99.90;;;;;;4744401;30;20105;-79
2022/11/29 16:58:40;;;;;;;57.20;17.23;;;2.70;99.90;;;;;;4730755;30;20048;-79
2022/11/29 17:01:30;;;;;;;51.75;17.50;;;2.20;99.90;;;;;;4732409;30;20056;-79
2022/11/29 17:03:59;;;;;;;57.20;17.38;;;3.30;99.90;;;;;;4714808;30;20049;-78
2022/11/29 17:06:28;;;;;;;52.83;17.65;;;3.00;99.90;;;;;;4727930;30;20106;-78
2022/11/29 17:08:58;;;;;;;56.17;17.80;;;3.40;99.90;;;;;;4714211;30;20429;-78
2022/11/29 17:11:25;;;;;;;55.90;20.02;;;3.90;99.90;;;;;;4731445;30;20045;-78
2022/11/29 17:13:53;;;;;;;52.50;19.08;;;2.80;99.90;;;;;;4743755;30;20152;-78
2022/11/29 17:16:23;;;;;;;55.53;18.02;;;2.50;99.90;;;;;;4731537;30;20049;-79
2022/11/29 17:18:51;;;;;;;52.97;18.50;;;3.20;99.90;;;;;;4743453;30;20606;-79
2022/11/29 17:21:24;;;;;;;55.70;19.55;;;2.80;99.90;;;;;;4716428;30;20102;-79
2022/11/29 17:23:53;;;;;;;71.00;21.90;;;2.80;99.90;;;;;;4733348;30;20060;-79
2022/11/29 17:26:23;;;;;;;54.97;21.15;;;2.80;99.90;;;;;;4733371;30;20578;-79
2022/11/29 17:28:51;;;;;;;56.80;20.15;;;2.60;99.90;;;;;;4733437;30;20117;-78
2022/11/29 17:31:23;;;;;;;54.83;20.20;;;2.20;99.90;;;;;;4733595;30;20052;-78
2022/11/29 17:33:51;;;;;;;59.13;19.40;;;3.90;99.90;;;;;;4745071;30;20060;-78
2022/11/29 17:36:20;;;;;;;57.03;18.88;;;3.70;99.90;;;;;;4743285;30;20048;-78
2022/11/29 17:38:47;;;;;;;61.25;20.02;;;2.80;99.90;;;;;;4747221;30;20067;-78
2022/11/29 17:41:19;;;;;;;58.72;19.90;;;2.90;99.90;;;;;;4747371;30;20106;-78
2022/11/29 17:43:48;;;;;;;74.78;25.40;;;4.10;99.90;;;;;;4748674;30;20051;-79
2022/11/29 17:46:28;;;;;;;97.18;33.20;;;2.10;99.90;;;;;;4730245;30;20056;-79
2022/11/29 17:48:59;;;;;;;93.63;32.70;;;2.30;99.90;;;;;;4733329;30;20052;-78
2022/11/29 17:51:30;;;;;;;69.75;25.13;;;2.80;99.90;;;;;;4731595;30;20106;-76
2022/11/29 17:54:17;;;;;;;80.03;26.52;;;2.70;99.90;;;;;;4748972;30;20044;-76
2022/11/29 17:56:48;;;;;;;75.28;29.10;;;3.50;99.90;;;;;;4748241;30;20062;-76
2022/11/29 17:59:16;;;;;;;76.30;29.67;;;3.00;99.90;;;;;;4750924;30;20036;-76
2022/11/29 18:01:48;;;;;;;84.18;28.38;;;3.00;99.90;;;;;;4720647;30;20485;-76
2022/11/29 18:04:17;;;;;;;87.20;29.10;;;3.20;99.90;;;;;;4733156;30;20067;-76
2022/11/29 18:06:48;;;;;;;85.78;30.27;;;3.00;99.90;;;;;;4728716;30;20056;-76
2022/11/29 18:09:18;;;;;;;75.90;26.02;;;4.80;99.90;;;;;;4733652;30;20888;-76
2022/11/29 18:11:47;;;;;;;80.45;27.77;;;2.90;99.90;;;;;;4731711;30;20048;-76
2022/11/29 18:14:21;;;;;;;69.22;23.85;;;3.20;99.90;;;;;;4720119;30;20086;-76
2022/11/29 18:16:50;;;;;;;;;;;3.00;99.90;;;;;;4750234;30;20063;-76
2022/11/29 18:19:21;;;;;;;61.55;22.75;;;3.00;99.90;;;;;;4751179;30;19926;-76
2022/11/29 18:21:51;;;;;;;69.30;23.75;;;3.00;99.90;;;;;;4749025;30;20123;-76
2022/11/29 18:24:25;;;;;;;64.72;24.67;;;2.00;99.90;;;;;;4734006;30;20113;-76
2022/11/29 18:26:53;;;;;;;69.72;25.60;;;3.00;99.90;;;;;;4751429;30;20139;-76
2022/11/29 18:29:22;;;;;;;74.28;27.45;;;3.00;99.90;;;;;;4748377;30;20054;-76
2022/11/29 18:31:50;;;;;;;81.85;30.90;;;4.30;99.90;;;;;;4734001;30;20074;-76
2022/11/29 18:34:18;;;;;;;103.03;37.42;;;3.10;99.90;;;;;;4714756;30;20944;-76
2022/11/29 18:36:47;;;;;;;79.25;25.98;;;2.90;99.90;;;;;;4732573;30;20048;-76
2022/11/29 18:39:17;;;;;;;78.85;30.25;;;3.00;99.90;;;;;;4737680;30;20052;-77
2022/11/29 18:41:48;;;;;;;69.82;25.60;;;2.30;99.90;;;;;;4718674;30;20102;-76
2022/11/29 18:44:18;;;;;;;84.18;30.25;;;3.00;99.90;;;;;;4738189;30;20059;-76
2022/11/29 18:46:46;;;;;;;75.50;30.80;;;2.40;99.90;;;;;;4733131;30;20389;-76
2022/11/29 18:49:16;;;;;;;70.90;23.45;;;3.10;99.90;;;;;;4730050;30;20456;-76
2022/11/29 18:51:44;;;;;;;84.35;33.20;;;3.10;99.90;;;;;;4731146;30;20056;-76
2022/11/29 18:54:14;;;;;;;77.63;29.10;;;3.40;99.90;;;;;;4731085;30;20056;-76
2022/11/29 18:56:44;;;;;;;73.47;27.65;;;1.80;99.90;;;;;;4745704;30;20059;-76
2022/11/29 18:59:15;;;;;;;73.80;26.65;;;3.10;99.90;;;;;;4748387;30;20075;-76
2022/11/29 19:01:46;;;;;;;82.97;27.73;;;3.10;99.90;;;;;;4720298;30;20079;-76
2022/11/29 19:04:17;;;;;;;80.57;31.00;;;3.10;99.90;;;;;;4748907;30;20144;-76
2022/11/29 19:06:46;;;;;;;77.00;28.15;;;3.00;99.90;;;;;;4733005;30;20044;-76
2022/11/29 19:09:18;;;;;;;80.53;26.73;;;4.50;99.90;;;;;;4728294;30;20442;-76
2022/11/29 19:11:49;;;;;;;75.38;28.30;;;3.10;99.90;;;;;;4736104;30;20044;-76
2022/11/29 19:14:18;;;;;;;72.60;24.20;;;3.20;99.90;;;;;;4721042;30;20052;-76
2022/11/29 19:16:47;;;;;;;73.38;26.77;;;3.20;99.90;;;;;;4730155;30;20053;-76
2022/11/29 19:19:17;;;;;;;77.57;30.05;;;3.20;99.90;;;;;;4746904;30;20094;-76
2022/11/29 19:21:45;;;;;;;68.28;25.40;;;2.00;99.90;;;;;;4733444;30;20056;-76
2022/11/29 19:24:16;;;;;;;72.30;29.25;;;3.10;99.90;;;;;;4737906;30;20811;-76
2022/11/29 19:26:47;;;;;;;85.55;28.02;;;3.10;99.90;;;;;;4734302;30;20048;-76
2022/11/29 19:29:16;;;;;;;70.30;25.83;;;4.40;99.90;;;;;;4746949;30;20508;-76
2022/11/29 19:31:44;;;;;;;75.13;28.95;;;3.10;99.90;;;;;;4747715;30;20138;-76
2022/11/29 19:34:12;;;;;;;69.53;26.13;;;3.20;99.90;;;;;;4748545;30;20479;-76
2022/11/29 19:36:41;;;;;;;68.07;25.83;;;3.10;99.90;;;;;;4748721;30;20044;-76
2022/11/29 19:39:13;;;;;;;64.75;26.48;;;3.10;99.90;;;;;;4718439;30;20105;-76
2022/11/29 19:41:43;;;;;;;74.20;25.58;;;3.20;99.90;;;;;;4750491;30;20580;-76
2022/11/29 19:44:11;;;;;;;74.53;26.42;;;3.50;99.90;;;;;;4733141;30;20139;-76